Time,TemperatureF,DewpointF,PressureIn,WindDirection,WindDirectionDegrees,WindSpeedMPH,WindSpeedGustMPH,Humidity,HourlyPrecipIn,Conditions,Clouds,dailyrainin,SolarRadiationWatts/m^2,SoftwareType,DateUTC
2013-02-23 00:01:00,33.0,33.0,-100.00,WSW,253,1.0,15.0,100,0.04,,,0.04,0.000000,,2013-02-23 08:01:00,
2013-02-23 00:11:00,33.0,33.0,-100.00,WSW,253,1.0,15.0,100,0.04,,,0.04,0.000000,,2013-02-23 08:11:00,
2013-02-23 00:21:00,33.0,33.0,-100.00,WSW,253,1.0,15.0,100,0.04,,,0.04,0.000000,,2013-02-23 08:21:00,
2013-02-23 00:52:00,34.0,34.0,-100.00,SSW,213,0.0,7.0,100,0.00,,,0.04,0.000000,,2013-02-23 08:52:00,
2013-02-23 01:01:00,34.0,34.0,-100.00,SSW,213,0.0,7.0,100,0.00,,,0.04,0.000000,,2013-02-23 09:01:00,
2013-02-23 01:11:00,34.0,34.0,-100.00,SSW,213,0.0,7.0,100,0.00,,,0.04,0.000000,,2013-02-23 09:11:00,
2013-02-23 01:21:00,34.0,34.0,-100.00,SSW,213,0.0,7.0,100,0.00,,,0.04,0.000000,,2013-02-23 09:21:00,
2013-02-23 01:52:00,35.0,30.0,-100.00,SSW,201,0.0,9.0,82,0.00,,,0.04,0.000000,,2013-02-23 09:52:00,
2013-02-23 02:01:00,35.0,30.0,-100.00,SSW,201,0.0,9.0,82,0.00,,,0.04,0.000000,,2013-02-23 10:01:00,
2013-02-23 02:11:00,35.0,30.0,-100.00,SSW,201,0.0,9.0,82,0.00,,,0.04,0.000000,,2013-02-23 10:11:00,
2013-02-23 02:21:00,35.0,30.0,-100.00,SSW,201,0.0,9.0,82,0.00,,,0.04,0.000000,,2013-02-23 10:21:00,
2013-02-23 02:52:00,35.0,24.0,-100.00,South,175,0.0,5.0,64,0.00,,,0.04,0.000000,,2013-02-23 10:52:00,
2013-02-23 03:02:00,35.0,24.0,-100.00,South,175,0.0,5.0,64,0.00,,,0.04,0.000000,,2013-02-23 11:02:00,
2013-02-23 03:11:00,35.0,24.0,-100.00,South,175,0.0,5.0,64,0.00,,,0.04,0.000000,,2013-02-23 11:11:00,
2013-02-23 03:21:00,35.0,24.0,-100.00,South,175,0.0,5.0,64,0.00,,,0.04,0.000000,,2013-02-23 11:21:00,
2013-02-23 03:52:00,33.0,25.0,-100.00,ENE,75,0.0,6.0,71,0.00,,,0.04,0.000000,,2013-02-23 11:52:00,
2013-02-23 04:01:00,33.0,25.0,-100.00,ENE,75,0.0,6.0,71,0.00,,,0.04,0.000000,,2013-02-23 12:01:00,
2013-02-23 04:11:00,33.0,25.0,-100.00,ENE,75,0.0,6.0,71,0.00,,,0.04,0.000000,,2013-02-23 12:11:00,
2013-02-23 04:21:00,33.0,25.0,-100.00,ENE,75,0.0,6.0,71,0.00,,,0.04,0.000000,,2013-02-23 12:21:00,
2013-02-23 04:52:00,35.0,24.0,-100.00,WSW,253,1.0,8.0,63,0.00,,,0.04,0.000000,,2013-02-23 12:52:00,
2013-02-23 05:01:00,35.0,24.0,-100.00,WSW,253,1.0,8.0,63,0.00,,,0.04,0.000000,,2013-02-23 13:01:00,
2013-02-23 05:11:00,35.0,24.0,-100.00,WSW,253,1.0,8.0,63,0.00,,,0.04,0.000000,,2013-02-23 13:11:00,
2013-02-23 05:22:00,35.0,24.0,-100.00,WSW,253,1.0,8.0,63,0.00,,,0.04,0.000000,,2013-02-23 13:22:00,
2013-02-23 05:52:00,36.0,21.0,-100.00,West,265,5.0,7.0,55,0.00,,,0.04,0.000000,,2013-02-23 13:52:00,
2013-02-23 06:02:00,36.0,21.0,-100.00,West,265,5.0,7.0,55,0.00,,,0.04,0.000000,,2013-02-23 14:02:00,
2013-02-23 06:11:00,36.0,21.0,-100.00,West,265,5.0,7.0,55,0.00,,,0.04,0.000000,,2013-02-23 14:11:00,
2013-02-23 06:21:00,36.0,21.0,-100.00,West,265,5.0,7.0,55,0.00,,,0.04,0.000000,,2013-02-23 14:21:00,
2013-02-23 06:52:00,35.0,20.0,-100.00,SW,234,4.0,13.0,55,0.00,,,0.04,0.000000,,2013-02-23 14:52:00,
2013-02-23 07:01:00,35.0,20.0,-100.00,SW,234,4.0,13.0,55,0.00,,,0.04,0.000000,,2013-02-23 15:01:00,
2013-02-23 07:11:00,35.0,20.0,-100.00,SW,234,4.0,13.0,55,0.00,,,0.04,0.000000,,2013-02-23 15:11:00,
2013-02-23 07:21:00,35.0,20.0,-100.00,SW,234,4.0,13.0,55,0.00,,,0.04,0.000000,,2013-02-23 15:21:00,
2013-02-23 07:52:00,35.0,20.0,-100.00,WSW,243,0.0,8.0,55,0.00,,,-99.99,4.000000,,2013-02-23 15:52:00,
2013-02-23 08:01:00,35.0,20.0,-100.00,WSW,243,0.0,8.0,55,0.00,,,-99.99,4.000000,,2013-02-23 16:01:00,
2013-02-23 08:11:00,35.0,20.0,-100.00,WSW,243,0.0,8.0,55,0.00,,,-99.99,4.000000,,2013-02-23 16:11:00,
2013-02-23 08:21:00,35.0,20.0,-100.00,WSW,243,0.0,8.0,55,0.00,,,-99.99,4.000000,,2013-02-23 16:21:00,
2013-02-23 08:52:00,40.0,26.0,-100.00,WSW,256,3.0,7.0,56,0.00,,,0.04,56.000000,,2013-02-23 16:52:00,
2013-02-23 09:01:00,40.0,26.0,-100.00,WSW,256,3.0,7.0,56,0.00,,,0.04,56.000000,,2013-02-23 17:01:00,
2013-02-23 09:11:00,40.0,26.0,-100.00,WSW,256,3.0,7.0,56,0.00,,,0.04,56.000000,,2013-02-23 17:11:00,
2013-02-23 09:21:00,40.0,26.0,-100.00,WSW,256,3.0,7.0,56,0.00,,,0.04,56.000000,,2013-02-23 17:21:00,
2013-02-23 09:52:00,47.0,26.0,-100.00,East,91,2.0,9.0,43,0.00,,,0.04,223.000000,,2013-02-23 17:52:00,
2013-02-23 10:01:00,47.0,26.0,-100.00,East,91,2.0,9.0,43,0.00,,,0.04,223.000000,,2013-02-23 18:01:00,
2013-02-23 10:12:00,47.0,26.0,-100.00,East,91,2.0,9.0,43,0.00,,,0.04,223.000000,,2013-02-23 18:12:00,
2013-02-23 10:21:00,47.0,26.0,-100.00,East,91,2.0,9.0,43,0.00,,,0.04,223.000000,,2013-02-23 18:21:00,
2013-02-23 10:52:00,47.0,26.0,-100.00,WNW,291,12.0,18.0,44,0.00,,,0.04,475.000000,,2013-02-23 18:52:00,
2013-02-23 11:01:00,47.0,26.0,-100.00,WNW,291,12.0,18.0,44,0.00,,,0.04,475.000000,,2013-02-23 19:01:00,
2013-02-23 11:11:00,47.0,26.0,-100.00,WNW,291,12.0,18.0,44,0.00,,,0.04,475.000000,,2013-02-23 19:11:00,
2013-02-23 11:21:00,47.0,26.0,-100.00,WNW,291,12.0,18.0,44,0.00,,,0.04,475.000000,,2013-02-23 19:21:00,
2013-02-23 11:52:00,49.0,26.0,-100.00,WNW,293,13.0,25.0,40,0.01,,,0.05,589.000000,,2013-02-23 19:52:00,
2013-02-23 12:01:00,49.0,26.0,-100.00,WNW,293,13.0,25.0,40,0.01,,,0.05,589.000000,,2013-02-23 20:01:00,
2013-02-23 12:11:00,49.0,26.0,-100.00,WNW,293,13.0,25.0,40,0.01,,,0.05,589.000000,,2013-02-23 20:11:00,
2013-02-23 12:21:00,49.0,26.0,-100.00,WNW,293,13.0,25.0,40,0.01,,,0.05,589.000000,,2013-02-23 20:21:00,
2013-02-23 12:52:00,51.0,26.0,-100.00,WNW,293,12.0,25.0,37,0.00,,,0.05,634.000000,,2013-02-23 20:52:00,
2013-02-23 13:01:00,51.0,26.0,-100.00,WNW,293,12.0,25.0,37,0.00,,,0.05,634.000000,,2013-02-23 21:01:00,
2013-02-23 13:11:00,51.0,26.0,-100.00,WNW,293,12.0,25.0,37,0.00,,,0.05,634.000000,,2013-02-23 21:11:00,
2013-02-23 13:22:00,51.0,26.0,-100.00,WNW,293,12.0,25.0,37,0.00,,,0.05,634.000000,,2013-02-23 21:22:00,
2013-02-23 13:52:00,51.0,26.0,-100.00,WNW,302,12.0,24.0,37,0.00,,,0.05,623.000000,,2013-02-23 21:52:00,
2013-02-23 14:01:00,51.0,26.0,-100.00,WNW,302,12.0,24.0,37,0.00,,,0.05,623.000000,,2013-02-23 22:01:00,
2013-02-23 14:11:00,51.0,26.0,-100.00,WNW,302,12.0,24.0,37,0.00,,,0.05,623.000000,,2013-02-23 22:11:00,
2013-02-23 14:21:00,51.0,26.0,-100.00,WNW,302,12.0,24.0,37,0.00,,,0.05,623.000000,,2013-02-23 22:21:00,
2013-02-23 14:52:00,50.0,25.0,-100.00,NW,304,12.0,24.0,38,0.00,,,0.05,534.000000,,2013-02-23 22:52:00,
2013-02-23 15:01:00,50.0,25.0,-100.00,NW,304,12.0,24.0,38,0.00,,,0.05,534.000000,,2013-02-23 23:01:00,
2013-02-23 15:11:00,50.0,25.0,-100.00,NW,304,12.0,24.0,38,0.00,,,0.05,534.000000,,2013-02-23 23:11:00,
2013-02-23 15:21:00,50.0,25.0,-100.00,NW,304,12.0,24.0,38,0.00,,,0.05,534.000000,,2013-02-23 23:21:00,
2013-02-23 15:52:00,52.0,26.0,-100.00,SW,215,5.0,25.0,36,0.00,,,0.05,428.000000,,2013-02-23 23:52:00,
2013-02-23 16:01:00,52.0,26.0,-100.00,SW,215,5.0,25.0,36,0.00,,,0.05,428.000000,,2013-02-24 00:01:00,
2013-02-23 16:11:00,52.0,26.0,-100.00,SW,215,5.0,25.0,36,0.00,,,0.05,428.000000,,2013-02-24 00:11:00,
2013-02-23 16:22:00,52.0,26.0,-100.00,SW,215,5.0,25.0,36,0.00,,,0.05,428.000000,,2013-02-24 00:22:00,
2013-02-23 16:52:00,49.0,24.0,-100.00,SW,233,6.0,15.0,37,0.00,,,0.05,266.000000,,2013-02-24 00:52:00,
2013-02-23 17:01:00,49.0,24.0,-100.00,SW,233,6.0,15.0,37,0.00,,,0.05,266.000000,,2013-02-24 01:01:00,
2013-02-23 17:11:00,49.0,24.0,-100.00,SW,233,6.0,15.0,37,0.00,,,0.05,266.000000,,2013-02-24 01:11:00,
2013-02-23 17:21:00,49.0,24.0,-100.00,SW,233,6.0,15.0,37,0.00,,,0.05,266.000000,,2013-02-24 01:21:00,
2013-02-23 17:52:00,45.0,23.0,-100.00,NW,316,5.0,13.0,42,0.00,,,0.05,50.000000,,2013-02-24 01:52:00,
2013-02-23 18:01:00,45.0,23.0,-100.00,NW,316,5.0,13.0,42,0.00,,,0.05,50.000000,,2013-02-24 02:01:00,
2013-02-23 18:11:00,45.0,23.0,-100.00,NW,316,5.0,13.0,42,0.00,,,0.05,50.000000,,2013-02-24 02:11:00,
2013-02-23 18:21:00,45.0,23.0,-100.00,NW,316,5.0,13.0,42,0.00,,,0.05,50.000000,,2013-02-24 02:21:00,
2013-02-23 18:52:00,44.0,23.0,-100.00,ENE,57,1.0,9.0,43,0.00,,,0.05,1.000000,,2013-02-24 02:52:00,
2013-02-23 19:01:00,44.0,23.0,-100.00,ENE,57,1.0,9.0,43,0.00,,,0.05,1.000000,,2013-02-24 03:01:00,
2013-02-23 19:11:00,44.0,23.0,-100.00,ENE,57,1.0,9.0,43,0.00,,,0.05,1.000000,,2013-02-24 03:11:00,
2013-02-23 19:21:00,44.0,23.0,-100.00,ENE,57,1.0,9.0,43,0.00,,,0.05,1.000000,,2013-02-24 03:21:00,
2013-02-23 19:52:00,42.0,23.0,-100.00,NW,321,2.0,7.0,46,0.00,,,0.05,0.000000,,2013-02-24 03:52:00,
2013-02-23 20:01:00,42.0,23.0,-100.00,NW,321,2.0,7.0,46,0.00,,,0.05,0.000000,,2013-02-24 04:01:00,
2013-02-23 20:11:00,42.0,23.0,-100.00,NW,321,2.0,7.0,46,0.00,,,0.05,0.000000,,2013-02-24 04:11:00,
2013-02-23 20:21:00,42.0,23.0,-100.00,NW,321,2.0,7.0,46,0.00,,,0.05,0.000000,,2013-02-24 04:21:00,
2013-02-23 20:52:00,39.0,23.0,-100.00,South,191,0.0,5.0,52,0.00,,,0.05,0.000000,,2013-02-24 04:52:00,
2013-02-23 21:01:00,39.0,23.0,-100.00,South,191,0.0,5.0,52,0.00,,,0.05,0.000000,,2013-02-24 05:01:00,
2013-02-23 21:11:00,39.0,23.0,-100.00,South,191,0.0,5.0,52,0.00,,,0.05,0.000000,,2013-02-24 05:11:00,
2013-02-23 21:21:00,39.0,23.0,-100.00,South,191,0.0,5.0,52,0.00,,,0.05,0.000000,,2013-02-24 05:21:00,
2013-02-23 21:52:00,38.0,23.0,-100.00,WSW,241,2.0,4.0,54,0.00,,,0.05,0.000000,,2013-02-24 05:52:00,
2013-02-23 22:01:00,38.0,23.0,-100.00,WSW,241,2.0,4.0,54,0.00,,,0.05,0.000000,,2013-02-24 06:01:00,
2013-02-23 22:11:00,38.0,23.0,-100.00,WSW,241,2.0,4.0,54,0.00,,,0.05,0.000000,,2013-02-24 06:11:00,
2013-02-23 22:21:00,38.0,23.0,-100.00,WSW,241,2.0,4.0,54,0.00,,,0.05,0.000000,,2013-02-24 06:21:00,
2013-02-23 22:52:00,35.0,23.0,-100.00,West,271,1.0,7.0,60,0.00,,,0.05,0.000000,,2013-02-24 06:52:00,
2013-02-23 23:01:00,35.0,23.0,-100.00,West,271,1.0,7.0,60,0.00,,,0.05,0.000000,,2013-02-24 07:01:00,
2013-02-23 23:11:00,35.0,23.0,-100.00,West,271,1.0,7.0,60,0.00,,,0.05,0.000000,,2013-02-24 07:11:00,
2013-02-23 23:21:00,35.0,23.0,-100.00,West,271,1.0,7.0,60,0.00,,,0.05,0.000000,,2013-02-24 07:21:00,
2013-02-23 23:52:00,38.0,22.0,-100.00,WSW,245,3.0,8.0,53,0.00,,,0.01,0.000000,,2013-02-24 07:52:00,